Time;durP1;ratioP1;P1;durP2;ratioP2;P2;SDS_P1;SDS_P2;PMS_P1;PMS_P2;Temp;Humidity;BMP_temperature;BMP_pressure;BME280_temperature;BME280_humidity;BME280_pressure;Samples;Min_cycle;Max_cycle;Signal;HPM_P1;HPM_P2
2023/05/22 00:01:18;;;;;;;;;;;17.90;99.90;;;;;;5132295;27;19923;-68
2023/05/22 00:03:44;;;;;;;;;;;17.90;99.90;;;;;;5132839;27;20023;-68
2023/05/22 00:06:10;;;;;;;;;;;18.00;99.90;;;;;;5133042;27;19924;-70
2023/05/22 00:08:36;;;;;;;;;;;17.90;99.90;;;;;;5132005;27;19923;-68
2023/05/22 00:11:02;;;;;;;;;;;17.90;99.90;;;;;;5133270;27;19946;-69
2023/05/22 00:13:28;;;;;;;;;;;17.90;99.90;;;;;;5132052;27;19928;-69
2023/05/22 00:15:53;;;;;;;;;;;17.90;99.90;;;;;;5132179;27;19934;-69
2023/05/22 00:18:19;;;;;;;;;;;17.90;99.90;;;;;;5133164;27;20013;-69
2023/05/22 00:20:45;;;;;;;;;;;17.90;99.90;;;;;;5114772;27;19927;-69
2023/05/22 00:23:11;;;;;;;;;;;17.90;99.90;;;;;;5132016;27;19930;-69
2023/05/22 00:25:37;;;;;;;;;;;17.90;99.90;;;;;;5132810;27;19923;-69
2023/05/22 00:28:03;;;;;;;;;;;17.90;99.90;;;;;;5133302;27;20015;-69
2023/05/22 00:30:29;;;;;;;;;;;17.90;99.90;;;;;;5132781;27;19924;-68
2023/05/22 00:32:55;;;;;;;;;;;17.90;99.90;;;;;;5132958;27;19968;-68
2023/05/22 00:35:21;;;;;;;;;;;17.90;99.90;;;;;;5133106;27;19925;-69
2023/05/22 00:37:46;;;;;;;;;;;17.90;99.90;;;;;;5114612;28;19927;-69
2023/05/22 00:40:14;;;;;;;;;;;17.90;99.90;;;;;;5132958;28;19934;-69
2023/05/22 00:42:43;;;;;;;;;;;17.90;99.90;;;;;;5131782;28;19931;-69
2023/05/22 00:45:09;;;;;;;;;;;17.90;99.90;;;;;;5132909;27;19924;-69
2023/05/22 00:47:35;;;;;;;;;;;17.90;99.90;;;;;;5131323;28;19923;-69
2023/05/22 00:50:02;;;;;;;;;;;17.90;99.90;;;;;;5130911;28;20364;-69
2023/05/22 00:52:27;;;;;;;;;;;17.90;99.90;;;;;;5131317;28;19923;-69
2023/05/22 00:54:53;;;;;;;;;;;17.90;99.90;;;;;;5132710;27;19928;-68
2023/05/22 00:57:19;;;;;;;;;;;17.90;99.90;;;;;;5131149;28;20248;-68
2023/05/22 00:59:45;;;;;;;;;;;17.80;99.90;;;;;;5132374;27;19924;-68
2023/05/22 01:02:12;;;;;;;;;;;17.80;99.90;;;;;;5132831;27;19930;-68
2023/05/22 01:04:38;;;;;;;;;;;17.80;99.90;;;;;;5132244;27;19923;-67
2023/05/22 01:07:04;;;;;;;;;;;17.70;99.90;;;;;;5114440;28;20443;-68
2023/05/22 01:09:30;;;;;;;;;;;17.70;99.90;;;;;;5114119;28;19931;-68
2023/05/22 01:12:03;;;;;;;;;;;17.70;99.90;;;;;;5132654;27;19923;-68
2023/05/22 01:14:35;;;;;;;;;;;17.70;99.90;;;;;;5132685;27;20022;-67
2023/05/22 01:17:10;;;;;;;;;;;17.70;99.90;;;;;;5132329;27;20376;-67
2023/05/22 01:19:42;;;;;;;;;;;17.70;99.90;;;;;;5134726;27;20421;-67
2023/05/22 01:22:08;;;;;;;;;;;17.70;99.90;;;;;;5136368;27;19975;-68
2023/05/22 01:24:36;;;;;;;;;;;17.70;99.90;;;;;;5136196;27;20269;-67
2023/05/22 01:27:24;;;;;;;;;;;17.70;99.90;;;;;;5135321;27;19924;-67
2023/05/22 01:30:16;;;;;;;;;;;17.70;99.90;;;;;;5135921;27;19924;-68
2023/05/22 01:32:42;;;;;;;;;;;17.70;99.90;;;;;;5133346;27;19931;-68
2023/05/22 01:35:10;;;;;;;;;;;17.70;99.90;;;;;;5136403;27;19924;-68
2023/05/22 01:37:36;;;;;;;;;;;17.70;99.90;;;;;;5134888;27;20264;-68
2023/05/22 01:40:02;;;;;;;;;;;17.70;99.90;;;;;;5136198;27;19924;-67
2023/05/22 01:42:28;;;;;;;;;;;17.70;99.90;;;;;;5136237;27;19924;-68
2023/05/22 01:44:54;;;;;;;;;;;17.70;99.90;;;;;;5134423;27;19987;-67
2023/05/22 01:47:21;;;;;;;;;;;17.70;99.90;;;;;;5136051;27;19945;-68
2023/05/22 01:49:47;;;;;;;;;;;17.70;99.90;;;;;;5135450;27;20022;-68
2023/05/22 01:52:19;;;;;;;;;;;17.70;99.90;;;;;;5136035;27;20019;-67
2023/05/22 01:54:51;;;;;;;;;;;17.70;99.90;;;;;;5135316;27;20000;-68
2023/05/22 01:57:25;;;;;;;;;;;17.60;99.90;;;;;;5134715;27;19986;-68
2023/05/22 02:00:05;;;;;;;;;;;17.60;99.90;;;;;;5135585;27;19985;-68
2023/05/22 02:02:34;;;;;;;;;;;17.60;99.90;;;;;;5135898;27;19923;-68
2023/05/22 02:05:02;;;;;;;;;;;17.60;99.90;;;;;;5134958;27;20010;-68
2023/05/22 02:07:29;;;;;;;;;;;17.50;99.90;;;;;;5135588;27;19967;-68
2023/05/22 02:09:55;;;;;;;;;;;17.50;99.90;;;;;;5134611;27;19923;-68
2023/05/22 02:12:21;;;;;;;;;;;17.50;99.90;;;;;;5135670;27;19930;-68
2023/05/22 02:14:47;;;;;;;;;;;17.50;99.90;;;;;;5134899;27;19966;-68
2023/05/22 02:17:13;;;;;;;;;;;17.20;99.90;;;;;;5135565;27;20446;-67
2023/05/22 02:19:39;;;;;;;;;;;17.40;99.90;;;;;;5135190;27;20018;-68
2023/05/22 02:22:04;;;;;;;;;;;17.40;99.90;;;;;;5134069;27;19923;-68
2023/05/22 02:24:30;;;;;;;;;;;17.30;99.90;;;;;;5135408;27;19930;-67
2023/05/22 02:26:56;;;;;;;;;;;17.30;99.90;;;;;;5134946;27;19927;-68
2023/05/22 02:29:22;;;;;;;;;;;17.30;99.90;;;;;;5133886;27;19985;-68
2023/05/22 02:31:48;;;;;;;;;;;17.20;99.90;;;;;;5134951;27;20008;-68
2023/05/22 02:34:14;;;;;;;;;;;17.20;99.90;;;;;;5133300;27;19924;-68
2023/05/22 02:36:39;;;;;;;;;;;17.10;99.90;;;;;;5134942;27;19931;-68
2023/05/22 02:39:05;;;;;;;;;;;17.20;99.90;;;;;;5134566;27;20060;-68
2023/05/22 02:41:31;;;;;;;;;;;17.20;99.90;;;;;;5135280;27;19924;-67
2023/05/22 02:43:56;;;;;;;;;;;17.10;99.90;;;;;;5134574;27;19924;-68
2023/05/22 02:46:22;;;;;;;;;;;17.10;99.90;;;;;;5135102;27;19927;-68
2023/05/22 02:48:47;;;;;;;;;;;17.10;99.90;;;;;;5134444;27;19923;-68
2023/05/22 02:51:13;;;;;;;;;;;17.10;99.90;;;;;;5134719;27;19931;-69
2023/05/22 02:53:40;;;;;;;;;;;17.00;99.90;;;;;;5133857;27;19923;-68
2023/05/22 02:56:06;;;;;;;;;;;17.00;99.90;;;;;;5133423;27;19959;-68
2023/05/22 02:58:32;;;;;;;;;;;17.00;99.90;;;;;;5134548;27;20354;-68
2023/05/22 03:00:58;;;;;;;;;;;17.00;99.90;;;;;;5134145;27;19978;-68
2023/05/22 03:03:24;;;;;;;;;;;16.90;99.90;;;;;;5133210;27;20296;-68
2023/05/22 03:05:52;;;;;;;;;;;16.90;99.90;;;;;;5134063;27;19923;-68
2023/05/22 03:08:18;;;;;;;;;;;16.90;99.90;;;;;;5133379;27;20337;-68
2023/05/22 03:10:43;;;;;;;;;;;16.90;99.90;;;;;;5133255;27;19927;-67
2023/05/22 03:13:09;;;;;;;;;;;16.90;99.90;;;;;;5116080;27;19923;-68
2023/05/22 03:15:35;;;;;;;;;;;17.00;99.90;;;;;;5134229;27;19924;-68
2023/05/22 03:18:01;;;;;;;;;;;17.00;99.90;;;;;;5133414;27;19935;-68
2023/05/22 03:20:26;;;;;;;;;;;16.90;99.90;;;;;;5134211;27;19924;-68
2023/05/22 03:22:52;;;;;;;;;;;16.90;99.90;;;;;;5133508;27;19930;-68
2023/05/22 03:25:19;;;;;;;;;;;16.90;99.90;;;;;;5132834;27;19985;-68
2023/05/22 03:27:44;;;;;;;;;;;16.90;99.90;;;;;;5132994;27;19963;-67
2023/05/22 03:30:10;;;;;;;;;;;16.90;99.90;;;;;;5133432;27;20403;-68
2023/05/22 03:32:36;;;;;;;;;;;16.90;99.90;;;;;;5132821;27;19923;-68
2023/05/22 03:35:02;;;;;;;;;;;16.90;99.90;;;;;;5114865;27;20044;-67
2023/05/22 03:37:28;;;;;;;;;;;16.90;99.90;;;;;;5133793;27;19923;-68
2023/05/22 03:39:54;;;;;;;;;;;16.90;99.90;;;;;;5115074;27;19930;-68
2023/05/22 03:42:19;;;;;;;;;;;16.90;99.90;;;;;;5131430;27;20254;-68
2023/05/22 03:44:45;;;;;;;;;;;16.90;99.90;;;;;;5133435;27;20264;-68
2023/05/22 03:47:11;;;;;;;;;;;16.90;99.90;;;;;;5133314;27;20036;-68
2023/05/22 03:49:36;;;;;;;;;;;16.80;99.90;;;;;;5133428;27;20509;-68
2023/05/22 03:52:02;;;;;;;;;;;16.80;99.90;;;;;;5132067;27;19923;-68
2023/05/22 03:54:28;;;;;;;;;;;16.70;99.90;;;;;;5132547;27;20420;-68
2023/05/22 03:56:54;;;;;;;;;;;16.70;99.90;;;;;;5133259;27;19927;-67
2023/05/22 03:59:20;;;;;;;;;;;16.70;99.90;;;;;;5132588;27;19930;-68
2023/05/22 04:01:47;;;;;;;;;;;16.70;99.90;;;;;;5133419;27;20292;-68
2023/05/22 04:04:13;;;;;;;;;;;16.60;99.90;;;;;;5131516;27;19976;-67
2023/05/22 04:06:41;;;;;;;;;;;16.60;99.90;;;;;;5133287;27;19923;-67
2023/05/22 04:09:10;;;;;;;;;;;16.60;99.90;;;;;;5132106;27;19924;-68
2023/05/22 04:11:38;;;;;;;;;;;16.50;99.90;;;;;;5133263;27;19924;-67
2023/05/22 04:14:04;;;;;;;;;;;16.50;99.90;;;;;;5132731;27;20338;-67
2023/05/22 04:16:30;;;;;;;;;;;16.50;99.90;;;;;;5132211;27;19968;-67
2023/05/22 04:18:56;;;;;;;;;;;16.50;99.90;;;;;;5132652;27;19923;-67
2023/05/22 04:21:23;;;;;;;;;;;16.50;99.90;;;;;;5132903;27;19931;-68
2023/05/22 04:23:49;;;;;;;;;;;16.50;99.90;;;;;;5133046;27;20018;-67
2023/05/22 04:26:16;;;;;;;;;;;16.50;99.90;;;;;;5131388;27;20513;-68
2023/05/22 04:28:44;;;;;;;;;;;16.40;99.90;;;;;;5133159;27;19930;-68
2023/05/22 04:31:13;;;;;;;;;;;16.50;99.90;;;;;;5132589;27;19974;-67
2023/05/22 04:33:39;;;;;;;;;;;16.50;99.90;;;;;;5132554;27;19924;-67
2023/05/22 04:36:05;;;;;;;;;;;16.50;99.90;;;;;;5132677;27;19924;-69
2023/05/22 04:38:35;;;;;;;;;;;16.50;99.90;;;;;;5133142;27;19928;-69
2023/05/22 04:41:01;;;;;;;;;;;16.50;99.90;;;;;;5131426;28;19971;-69
2023/05/22 04:43:26;;;;;;;;;;;16.50;99.90;;;;;;5132099;28;19924;-69
2023/05/22 04:45:53;;;;;;;;;;;16.50;99.90;;;;;;5131734;28;19985;-69
2023/05/22 04:48:19;;;;;;;;;;;16.60;99.90;;;;;;5131457;28;19919;-69
2023/05/22 04:50:46;;;;;;;;;;;16.50;99.90;;;;;;5132975;27;19928;-69
2023/05/22 04:53:11;;;;;;;;;;;16.60;99.90;;;;;;5133410;27;20010;-69
2023/05/22 04:55:38;;;;;;;;;;;16.60;99.90;;;;;;5136020;27;19972;-69
2023/05/22 04:58:05;;;;;;;;;;;16.70;99.90;;;;;;5118376;27;19928;-67
2023/05/22 05:00:30;;;;;;;;;;;16.70;99.90;;;;;;5137059;27;20018;-68
2023/05/22 05:02:56;;;;;;;;;;;16.70;99.90;;;;;;5137026;27;20018;-68
2023/05/22 05:05:22;;;;;;;;;;;16.80;99.90;;;;;;5136614;27;19938;-69
2023/05/22 05:07:48;;;;;;;;;;;16.80;99.90;;;;;;5136659;27;20383;-67
2023/05/22 05:10:17;;;;;;;;;;;16.80;99.90;;;;;;5151627;27;19923;-67
2023/05/22 05:12:43;;;;;;;;;;;16.80;99.90;;;;;;5136441;27;20120;-69
2023/05/22 05:15:08;;;;;;;;;;;16.90;99.90;;;;;;5136132;27;19923;-67
2023/05/22 05:17:34;;;;;;;;;;;16.90;99.90;;;;;;5135055;27;20014;-67
2023/05/22 05:19:59;;;;;;;;;;;16.90;99.90;;;;;;5136865;27;20269;-68
2023/05/22 05:22:25;;;;;;;;;;;16.90;99.90;;;;;;5136054;27;19923;-69
2023/05/22 05:24:51;;;;;;;;;;;16.90;99.90;;;;;;5169973;27;19930;-69
2023/05/22 05:27:16;;;;;;;;;;;16.90;99.90;;;;;;5152261;27;19945;-69
2023/05/22 05:29:42;;;;;;;;;;;16.90;99.90;;;;;;5136134;27;19975;-69
2023/05/22 05:32:08;;;;;;;;;;;16.90;99.90;;;;;;5135837;27;20026;-68
2023/05/22 05:34:34;;;;;;;;;;;16.90;99.90;;;;;;5136222;27;20000;-68
2023/05/22 05:37:01;;;;;;;;;;;17.00;99.90;;;;;;5134932;27;20005;-68
2023/05/22 05:39:27;;;;;;;;;;;16.90;99.90;;;;;;5135774;27;20304;-68
2023/05/22 05:41:52;;;;;;;;;;;17.00;99.90;;;;;;5136280;27;19923;-70
2023/05/22 05:44:18;;;;;;;;;;;16.90;99.90;;;;;;5134500;27;20285;-68
2023/05/22 05:46:44;;;;;;;;;;;16.90;99.90;;;;;;5136164;27;19929;-69
2023/05/22 05:49:09;;;;;;;;;;;16.90;99.90;;;;;;5100077;27;20406;-67
2023/05/22 05:51:38;;;;;;;;;;;17.00;99.90;;;;;;5135636;27;19970;-68
2023/05/22 05:54:04;;;;;;;;;;;17.00;99.90;;;;;;5117430;27;19970;-68
2023/05/22 05:56:29;;;;;;;;;;;17.00;99.90;;;;;;5135468;27;19923;-68
2023/05/22 05:58:55;;;;;;;;;;;17.30;99.90;;;;;;5135967;27;20374;-67
2023/05/22 06:01:23;;;;;;;;;;;17.00;99.90;;;;;;5135569;27;20280;-67
2023/05/22 06:03:49;;;;;;;;;;;17.10;99.90;;;;;;5135005;27;19927;-66
2023/05/22 06:06:16;;;;;;;;;;;17.10;99.90;;;;;;5134435;27;19923;-67
2023/05/22 06:08:44;;;;;;;;;;;17.10;99.90;;;;;;5135869;27;20010;-68
2023/05/22 06:11:10;;;;;;;;;;;17.10;99.90;;;;;;5135053;27;20026;-67
2023/05/22 06:13:35;;;;;;;;;;;17.10;99.90;;;;;;5134610;27;20339;-67
2023/05/22 06:16:01;;;;;;;;;;;17.10;99.90;;;;;;5135675;27;20292;-66
2023/05/22 06:18:27;;;;;;;;;;;17.10;99.90;;;;;;5116922;27;20056;-66
2023/05/22 06:20:52;;;;;;;;;;;17.10;99.90;;;;;;5135539;27;19923;-67
2023/05/22 06:23:18;;;;;;;;;;;17.20;99.90;;;;;;5134003;27;19930;-68
2023/05/22 06:25:44;;;;;;;;;;;17.10;99.90;;;;;;5135285;27;19931;-66
2023/05/22 06:28:10;;;;;;;;;;;17.10;99.90;;;;;;5135370;27;19931;-66
2023/05/22 06:30:35;;;;;;;;;;;17.00;99.90;;;;;;5134806;27;20010;-65
2023/05/22 06:33:02;;;;;;;;;;;17.00;99.90;;;;;;5134922;27;19924;-66
2023/05/22 06:35:28;;;;;;;;;;;17.00;99.90;;;;;;5134062;27;19923;-66
2023/05/22 06:37:54;;;;;;;;;;;17.00;99.90;;;;;;5134926;27;19923;-66
2023/05/22 06:40:20;;;;;;;;;;;17.00;99.90;;;;;;5134585;27;19929;-66
2023/05/22 06:42:45;;;;;;;;;;;17.00;99.90;;;;;;5134706;27;19923;-67
2023/05/22 06:45:11;;;;;;;;;;;17.00;99.90;;;;;;5134559;27;19923;-67
2023/05/22 06:47:37;;;;;;;;;;;17.00;99.90;;;;;;5134459;27;19950;-65
2023/05/22 06:50:03;;;;;;;;;;;16.90;99.90;;;;;;5133579;27;19946;-66
2023/05/22 06:52:28;;;;;;;;;;;16.90;99.90;;;;;;5133328;27;19931;-66
2023/05/22 06:54:54;;;;;;;;;;;16.90;99.90;;;;;;5133591;27;19966;-66
2023/05/22 06:57:20;;;;;;;;;;;16.90;99.90;;;;;;5116179;27;19949;-66
2023/05/22 06:59:45;;;;;;;;;;;16.90;99.90;;;;;;5116697;27;20003;-66
2023/05/22 07:02:11;;;;;;;;;;;16.80;99.90;;;;;;5133500;27;20280;-66
2023/05/22 07:04:37;;;;;;;;;;;16.80;99.90;;;;;;5134366;27;19923;-66
2023/05/22 07:07:02;;;;;;;;;;;16.70;99.90;;;;;;5134376;27;19980;-66
2023/05/22 07:09:28;;;;;;;;;;;16.70;99.90;;;;;;5133083;27;20028;-65
2023/05/22 07:11:53;;;;;;;;;;;16.70;99.90;;;;;;5134661;27;19927;-65
2023/05/22 07:14:19;;;;;;;;;;;16.70;99.90;;;;;;5134059;27;19924;-67
2023/05/22 07:16:45;;;;;;;;;;;16.60;99.90;;;;;;5133375;27;19931;-66
2023/05/22 07:19:11;;;;;;;;;;;16.60;99.90;;;;;;5115962;27;19931;-67
2023/05/22 07:21:36;;;;;;;;;;;16.60;99.90;;;;;;5134202;27;20014;-66
2023/05/22 07:24:07;;;;;;;;;;;16.50;99.90;;;;;;5132817;27;19924;-66
2023/05/22 07:26:36;;;;;;;;;;;16.50;99.90;;;;;;5132462;27;19923;-67
2023/05/22 07:29:02;;;;;;;;;;;16.50;99.90;;;;;;5133976;27;19928;-67
2023/05/22 07:31:28;;;;;;;;;;;16.40;99.90;;;;;;5132327;27;19923;-66
2023/05/22 07:33:54;;;;;;;;;;;16.40;99.90;;;;;;5133780;27;19928;-66
2023/05/22 07:36:19;;;;;;;;;;;16.50;99.90;;;;;;5133618;27;20368;-68
2023/05/22 07:38:45;;;;;;;;;;;16.40;99.90;;;;;;5132652;27;20361;-67
2023/05/22 07:41:11;;;;;;;;;;;16.40;99.90;;;;;;5133864;27;20365;-67
2023/05/22 07:43:36;;;;;;;;;;;16.40;99.90;;;;;;5167084;27;19974;-65
2023/05/22 07:46:02;;;;;;;;;;;16.40;99.90;;;;;;5132597;27;19923;-66
2023/05/22 07:48:27;;;;;;;;;;;16.40;99.90;;;;;;5133374;27;20030;-66
2023/05/22 07:50:53;;;;;;;;;;;16.40;99.90;;;;;;5132429;27;19931;-65
2023/05/22 07:53:19;;;;;;;;;;;16.40;99.90;;;;;;5134059;27;19923;-66
2023/05/22 07:55:45;;;;;;;;;;;16.40;99.90;;;;;;5132224;27;19930;-67
2023/05/22 07:58:10;;;;;;;;;;;16.40;99.90;;;;;;5133564;27;19924;-66
2023/05/22 08:00:36;;;;;;;;;;;16.30;99.90;;;;;;5133126;27;19974;-66
2023/05/22 08:03:02;;;;;;;;;;;16.30;99.90;;;;;;5133585;27;19923;-67
2023/05/22 08:05:27;;;;;;;;;;;16.30;99.90;;;;;;5133228;27;20565;-66
2023/05/22 08:07:53;;;;;;;;;;;16.20;99.90;;;;;;5133356;27;19927;-67
2023/05/22 08:10:18;;;;;;;;;;;16.20;99.90;;;;;;5132017;27;19923;-67
2023/05/22 08:12:44;;;;;;;;;;;16.20;99.90;;;;;;5131611;27;20421;-67
2023/05/22 08:15:10;;;;;;;;;;;16.20;99.90;;;;;;5133365;27;20349;-67
2023/05/22 08:17:35;;;;;;;;;;;16.20;99.90;;;;;;5133003;27;19937;-67
2023/05/22 08:20:01;;;;;;;;;;;16.10;99.90;;;;;;5133329;27;19924;-68
2023/05/22 08:22:30;;;;;;;;;;;16.10;99.90;;;;;;5131446;27;19924;-67
2023/05/22 08:24:55;;;;;;;;;;;16.10;99.90;;;;;;5133515;27;19980;-68
2023/05/22 08:27:21;;;;;;;;;;;16.10;99.90;;;;;;5133068;27;19965;-68
2023/05/22 08:29:46;;;;;;;;;;;16.20;99.90;;;;;;5132826;27;19923;-66
2023/05/22 08:32:12;;;;;;;;;;;16.10;99.90;;;;;;5133143;27;20403;-67
2023/05/22 08:34:39;;;;;;;;;;;16.20;99.90;;;;;;5132431;28;19929;-66
2023/05/22 08:37:05;;;;;;;;;;;16.20;99.90;;;;;;5132096;28;19923;-66
2023/05/22 08:39:31;;;;;;;;;;;16.20;99.90;;;;;;5132723;27;19923;-66
2023/05/22 08:41:56;;;;;;;;;;;16.20;99.90;;;;;;5132871;28;19923;-65
2023/05/22 08:44:23;;;;;;;;;;;16.20;99.90;;;;;;5166640;27;20022;-66
2023/05/22 08:46:50;;;;;;;;;;;16.20;99.90;;;;;;5132533;27;19919;-66
2023/05/22 08:49:16;;;;;;;;;;;16.20;99.90;;;;;;5133005;27;19935;-66
2023/05/22 08:51:45;;;;;;;;;;;16.30;99.90;;;;;;5132426;27;19968;-66
2023/05/22 08:54:11;;;;;;;;;;;16.30;99.90;;;;;;5132844;27;19947;-67
2023/05/22 08:56:37;;;;;;;;;;;16.30;99.90;;;;;;5131297;28;19923;-67
2023/05/22 08:59:03;;;;;;;;;;;16.30;99.90;;;;;;5131961;28;19923;-65
2023/05/22 09:01:29;;;;;;;;;;;16.30;99.90;;;;;;5131916;28;19923;-66
2023/05/22 09:03:59;;;;;;;;;;;16.30;99.90;;;;;;5132528;27;19930;-66
2023/05/22 09:06:24;;;;;;;;;;;16.30;99.90;;;;;;5132657;27;19924;-66
2023/05/22 09:08:50;;;;;;;;;;;16.30;99.90;;;;;;5131878;27;19924;-67
2023/05/22 09:11:16;;;;;;;;;;;16.30;99.90;;;;;;5114101;28;20023;-68
2023/05/22 09:13:43;;;;;;;;;;;16.30;99.90;;;;;;5132263;27;19973;-68
2023/05/22 09:16:10;;;;;;;;;;;16.30;99.90;;;;;;5132645;27;20441;-66
2023/05/22 09:18:36;;;;;;;;;;;16.30;99.90;;;;;;5114384;28;19930;-66
2023/05/22 09:21:02;;;;;;;;;;;16.30;99.90;;;;;;5132767;27;19981;-66
2023/05/22 09:23:28;;;;;;;;;;;16.40;99.90;;;;;;5131470;28;20388;-66
2023/05/22 09:25:58;;;;;;;;;;;16.50;99.90;;;;;;5132111;27;19923;-65
2023/05/22 09:28:24;;;;;;;;;;;16.60;99.90;;;;;;5132373;27;20419;-66
2023/05/22 09:30:50;;;;;;;;;;;16.70;99.90;;;;;;5132029;27;19924;-65
2023/05/22 09:33:16;;;;;;;;;;;16.90;99.90;;;;;;5132418;27;19923;-66
2023/05/22 09:35:42;;;;;;;;;;;17.00;99.90;;;;;;5165346;27;19968;-66
2023/05/22 09:38:11;;;;;;;;;;;17.10;99.90;;;;;;5132519;27;19924;-66
2023/05/22 09:40:37;;;;;;;;;;;17.20;99.90;;;;;;5134350;27;20021;-66
2023/05/22 09:43:07;;;;;;;;;;;17.20;99.90;;;;;;5135077;27;19928;-67
2023/05/22 09:45:33;;;;;;;;;;;17.40;99.90;;;;;;5117873;27;20425;-66
2023/05/22 09:47:59;;;;;;;;;;;17.60;99.90;;;;;;5134420;27;19924;-67
2023/05/22 09:50:24;;;;;;;;;;;17.80;99.90;;;;;;5134758;27;19968;-67
2023/05/22 09:52:50;;;;;;;;;;;18.00;99.90;;;;;;5134447;27;19969;-66
2023/05/22 09:55:19;;;;;;;;;;;18.10;99.90;;;;;;5135099;27;20379;-66
2023/05/22 09:57:45;;;;;;;;;;;18.40;99.90;;;;;;5135533;27;19938;-66
2023/05/22 10:00:16;;;;;;;;;;;18.50;99.90;;;;;;5134318;27;20373;-66
2023/05/22 10:02:46;;;;;;;;;;;18.60;99.90;;;;;;5135402;27;19924;-67
2023/05/22 10:05:20;;;;;;;;;;;18.80;99.90;;;;;;5134657;27;19923;-66
2023/05/22 10:07:48;;;;;;;;;;;19.00;99.90;;;;;;5135457;27;19924;-67
2023/05/22 10:10:15;;;;;;;;;;;19.20;99.90;;;;;;5134983;27;20399;-67
2023/05/22 10:12:42;;;;;;;;;;;19.30;99.90;;;;;;5117239;27;19929;-68
2023/05/22 10:15:09;;;;;;;;;;;19.40;99.90;;;;;;5134605;27;20274;-67
2023/05/22 10:17:35;;;;;;;;;;;19.60;99.90;;;;;;5134635;27;19924;-68
2023/05/22 10:20:03;;;;;;;;;;;19.70;99.90;;;;;;5133783;27;20136;-67
2023/05/22 10:22:29;;;;;;;;;;;19.80;99.90;;;;;;5135520;27;19923;-66
2023/05/22 10:24:56;;;;;;;;;;;19.90;99.90;;;;;;5135095;27;19924;-66
2023/05/22 10:27:21;;;;;;;;;;;19.80;99.90;;;;;;5134119;27;19924;-67
2023/05/22 10:29:53;;;;;;;;;;;19.70;99.90;;;;;;5133257;27;20364;-67
2023/05/22 10:32:38;;;;;;;;;;;19.70;99.90;;;;;;5135377;27;19983;-66
2023/05/22 10:35:06;;;;;;;;;;;19.60;99.90;;;;;;5134630;27;20384;-66
2023/05/22 10:37:42;;;;;;;;;;;19.70;99.90;;;;;;5135131;27;19927;-66
2023/05/22 10:40:08;;;;;;;;;;;19.60;99.90;;;;;;5135019;27;19924;-66
2023/05/22 10:42:35;;;;;;;;;;;19.60;99.90;;;;;;5134206;27;19929;-66
2023/05/22 10:45:02;;;;;;;;;;;19.60;99.90;;;;;;5150634;27;19937;-66
2023/05/22 10:47:27;;;;;;;;;;;19.60;99.90;;;;;;5134953;27;20016;-66
2023/05/22 10:50:09;;;;;;;;;;;19.60;99.90;;;;;;5134719;27;20039;-66
2023/05/22 10:52:35;;;;;;;;;;;19.60;99.90;;;;;;5134959;27;19983;-66
2023/05/22 10:55:05;;;;;;;;;;;19.60;99.90;;;;;;5133431;27;19923;-66
2023/05/22 10:57:35;;;;;;;;;;;19.60;99.90;;;;;;5116604;27;19924;-65
2023/05/22 11:00:08;;;;;;;;;;;19.60;99.90;;;;;;5167799;27;19924;-65
2023/05/22 11:02:38;;;;;;;;;;;19.70;99.90;;;;;;5134412;27;20403;-65
2023/05/22 11:05:12;;;;;;;;;;;19.70;99.90;;;;;;5134216;27;20376;-66
2023/05/22 11:07:41;;;;;;;;;;;19.80;99.90;;;;;;5133812;27;20261;-67
2023/05/22 11:10:07;;;;;;;;;;;20.00;99.90;;;;;;5133619;27;19919;-65
2023/05/22 11:12:32;;;;;;;;;;;20.20;99.90;;;;;;5134413;27;19931;-64
2023/05/22 11:15:04;;;;;;;;;;;20.40;99.90;;;;;;5116001;27;19933;-64
2023/05/22 11:17:32;;;;;;;;;;;20.60;99.90;;;;;;5133580;27;19923;-64
2023/05/22 11:19:58;;;;;;;;;;;20.70;99.90;;;;;;5134149;27;19924;-64
2023/05/22 11:22:34;;;;;;;;;;;20.80;99.90;;;;;;5133276;27;20064;-63
2023/05/22 11:25:02;;;;;;;;;;;20.90;99.90;;;;;;5115975;27;19930;-65
2023/05/22 11:27:28;;;;;;;;;;;20.90;99.90;;;;;;5134161;27;19930;-62
2023/05/22 11:29:53;;;;;;;;;;;21.10;99.90;;;;;;5133748;27;19928;-63
2023/05/22 11:32:21;;;;;;;;;;;;;;;;;;5134092;27;20006;-64
2023/05/22 11:34:49;;;;;;;;;;;;;;;;;;5132642;27;20036;-63
2023/05/22 11:37:17;;;;;;;;;;;21.20;99.90;;;;;;5133993;27;19930;-63
2023/05/22 11:39:51;;;;;;;;;;;21.80;99.90;;;;;;5133039;27;19942;-64
2023/05/22 11:42:17;;;;;;;;;;;21.60;99.90;;;;;;5134094;27;19924;-63
2023/05/22 11:44:42;;;;;;;;;;;21.50;99.90;;;;;;5134045;27;20018;-64
2023/05/22 11:47:08;;;;;;;;;;;21.40;99.90;;;;;;5132008;27;20059;-63
2023/05/22 11:49:33;;;;;;;;;;;21.30;99.90;;;;;;5132469;27;19931;-65
2023/05/22 11:51:59;;;;;;;;;;;21.20;99.90;;;;;;5132481;27;19924;-65
2023/05/22 11:54:24;;;;;;;;;;;21.20;99.90;;;;;;5133710;27;20014;-63
2023/05/22 11:56:50;;;;;;;;;;;21.30;99.90;;;;;;5132964;27;19924;-64
2023/05/22 11:59:16;;;;;;;;;;;21.40;99.90;;;;;;5131994;27;19930;-65
2023/05/22 12:01:41;;;;;;;;;;;21.40;99.90;;;;;;5132456;27;19967;-64
2023/05/22 12:04:07;;;;;;;;;;;21.50;99.90;;;;;;5131664;27;19935;-64
2023/05/22 12:06:33;;;;;;;;;;;21.60;99.90;;;;;;5115157;27;20289;-64
2023/05/22 12:08:59;;;;;;;;;;;21.70;99.90;;;;;;5132805;27;19924;-64
2023/05/22 12:11:26;;;;;;;;;;;21.80;99.90;;;;;;5133041;27;19923;-64
2023/05/22 12:13:58;;;;;;;;;;;21.90;99.90;;;;;;5133357;27;19924;-65
2023/05/22 12:16:24;;;;;;;;;;;22.00;99.90;;;;;;5132241;27;19931;-65
2023/05/22 12:18:53;;;;;;;;;;;22.10;99.90;;;;;;5133256;27;19923;-66
2023/05/22 12:21:19;;;;;;;;;;;22.30;99.90;;;;;;5166827;27;19924;-63
2023/05/22 12:23:48;;;;;;;;;;;22.40;99.90;;;;;;5132270;27;19923;-63
2023/05/22 12:26:14;;;;;;;;;;;22.60;99.90;;;;;;5132987;27;19923;-63
2023/05/22 12:28:40;;;;;;;;;;;22.70;99.90;;;;;;5149542;27;19946;-65
2023/05/22 12:31:06;;;;;;;;;;;22.80;99.90;;;;;;5132703;27;20102;-64
2023/05/22 12:33:31;;;;;;;;;;;22.80;99.90;;;;;;5133213;27;20360;-63
2023/05/22 12:35:57;;;;;;;;;;;22.90;99.90;;;;;;5133069;27;19931;-65
2023/05/22 12:38:26;;;;;;;;;;;22.90;99.90;;;;;;5133172;27;19978;-64
2023/05/22 12:40:53;;;;;;;;;;;22.80;99.90;;;;;;5132138;28;20304;-64
2023/05/22 12:43:20;;;;;;;;;;;22.80;99.90;;;;;;5132366;27;19924;-64
2023/05/22 12:45:45;;;;;;;;;;;22.80;99.90;;;;;;5133044;27;19924;-65
2023/05/22 12:48:11;;;;;;;;;;;22.80;99.90;;;;;;5131846;28;19924;-64
2023/05/22 12:50:37;;;;;;;;;;;22.50;99.90;;;;;;5131930;28;19924;-64
2023/05/22 12:53:03;;;;;;;;;;;22.40;99.90;;;;;;5131266;28;19927;-65
2023/05/22 12:55:29;;;;;;;;;;;22.10;99.90;;;;;;5133035;27;19980;-65
2023/05/22 12:57:55;;;;;;;;;;;22.00;99.90;;;;;;5133050;27;19923;-65
2023/05/22 13:00:24;;;;;;;;;;;21.90;99.90;;;;;;5132437;27;19930;-65
2023/05/22 13:02:49;;;;;;;;;;;21.70;99.90;;;;;;5132875;27;19927;-65
2023/05/22 13:05:15;;;;;;;;;;;21.60;99.90;;;;;;5131738;28;20004;-64
2023/05/22 13:07:40;;;;;;;;;;;21.50;99.90;;;;;;5132801;28;19937;-64
2023/05/22 13:10:06;;;;;;;;;;;21.50;99.90;;;;;;5130857;28;20007;-65
2023/05/22 13:12:32;;;;;;;;;;;21.50;99.90;;;;;;5131330;28;19924;-64
2023/05/22 13:14:58;;;;;;;;;;;21.40;99.90;;;;;;5132933;27;20007;-65
2023/05/22 13:17:24;;;;;;;;;;;21.20;99.90;;;;;;5136444;27;19928;-64
2023/05/22 13:19:50;;;;;;;;;;;21.20;99.90;;;;;;5136709;27;19923;-65
2023/05/22 13:22:16;;;;;;;;;;;21.10;99.90;;;;;;5130390;27;19927;-65
2023/05/22 13:24:41;;;;;;;;;;;21.20;99.90;;;;;;5118092;27;19973;-65
2023/05/22 13:27:07;;;;;;;;;;;21.20;99.90;;;;;;5135031;27;19923;-65
2023/05/22 13:29:33;;;;;;;;;;;21.20;99.90;;;;;;5136589;27;19934;-65
2023/05/22 13:31:59;;;;;;;;;;;21.30;99.90;;;;;;5132318;27;19923;-65
2023/05/22 13:34:25;;;;;;;;;;;21.40;99.90;;;;;;5134565;27;20073;-64
2023/05/22 13:36:50;;;;;;;;;;;21.40;99.90;;;;;;5117076;27;20424;-64
2023/05/22 13:39:16;;;;;;;;;;;21.50;99.90;;;;;;5134569;27;20018;-64
2023/05/22 13:41:42;;;;;;;;;;;21.40;99.90;;;;;;5117813;27;20006;-66
2023/05/22 13:44:07;;;;;;;;;;;21.40;99.90;;;;;;5136103;27;19975;-65
2023/05/22 13:46:33;;;;;;;;;;;21.30;99.90;;;;;;5117751;27;20367;-65
2023/05/22 13:48:59;;;;;;;;;;;21.10;99.90;;;;;;5134696;27;19923;-65
2023/05/22 13:51:24;;;;;;;;;;;21.10;99.90;;;;;;5134062;27;19919;-66
2023/05/22 13:53:50;;;;;;;;;;;21.10;99.90;;;;;;5135788;27;20003;-66
2023/05/22 13:56:16;;;;;;;;;;;21.20;99.90;;;;;;5134522;27;19993;-66
2023/05/22 13:58:41;;;;;;;;;;;21.20;99.90;;;;;;5136024;27;19923;-65
2023/05/22 14:01:08;;;;;;;;;;;21.30;99.90;;;;;;5117826;27;19975;-66
2023/05/22 14:03:33;;;;;;;;;;;21.30;99.90;;;;;;5135903;27;20032;-64
2023/05/22 14:05:59;;;;;;;;;;;21.30;99.90;;;;;;5134919;27;19927;-65
2023/05/22 14:08:24;;;;;;;;;;;21.30;99.90;;;;;;5134256;27;19924;-65
2023/05/22 14:10:50;;;;;;;;;;;21.30;99.90;;;;;;5135394;27;20356;-65
2023/05/22 14:13:16;;;;;;;;;;;21.30;99.90;;;;;;5134286;27;19935;-64
2023/05/22 14:15:42;;;;;;;;;;;21.20;99.90;;;;;;5134436;27;19923;-64